Time;durP1;ratioP1;P1;durP2;ratioP2;P2;SDS_P1;SDS_P2;PMS_P1;PMS_P2;Temp;Humidity;BMP_temperature;BMP_pressure;BME280_temperature;BME280_humidity;BME280_pressure;Samples;Min_cycle;Max_cycle;Signal;HPM_P1;HPM_P2
2023/06/26 00:01:31;;;;;;;8.27;6.60;;;;;;;20.84;72.03;98079.25;4150832;28;20734;-84
2023/06/26 00:03:34;;;;;;;6.90;5.67;;;;;;;20.81;72.95;98079.59;4173835;28;20739;-83
2023/06/26 00:05:37;;;;;;;8.37;6.07;;;;;;;20.77;72.13;98078.25;4173904;28;21027;-84
2023/06/26 00:07:41;;;;;;;9.73;6.73;;;;;;;20.76;73.76;98081.09;4166932;28;20667;-84
2023/06/26 00:09:44;;;;;;;9.30;6.67;;;;;;;20.74;73.25;98077.78;4157650;28;20983;-84
2023/06/26 00:11:47;;;;;;;8.77;6.23;;;;;;;20.69;72.79;98086.22;4153345;28;20783;-84
2023/06/26 00:13:50;;;;;;;7.50;5.57;;;;;;;20.66;72.85;98091.00;4169126;28;20649;-83
2023/06/26 00:15:54;;;;;;;9.03;6.40;;;;;;;20.62;74.23;98093.16;4172971;28;20992;-83
2023/06/26 00:17:58;;;;;;;7.83;6.23;;;;;;;20.60;73.34;98095.16;4170758;28;20662;-83
2023/06/26 00:20:05;;;;;;;9.07;6.60;;;;;;;20.57;72.71;98092.84;4156371;28;20675;-84
2023/06/26 00:22:08;;;;;;;9.30;7.53;;;;;;;20.54;72.07;98092.34;4186684;28;21584;-83
2023/06/26 00:24:11;;;;;;;8.60;6.40;;;;;;;20.49;74.26;98095.50;4167423;28;20634;-84
2023/06/26 00:26:14;;;;;;;8.83;6.50;;;;;;;20.44;73.03;98091.66;4164943;28;21303;-81
2023/06/26 00:28:17;;;;;;;9.50;6.40;;;;;;;20.38;74.14;98087.84;4158098;28;20648;-81
2023/06/26 00:30:22;;;;;;;8.60;6.83;;;;;;;20.36;73.89;98092.50;4155894;28;21311;-80
2023/06/26 00:32:27;;;;;;;7.13;5.60;;;;;;;20.34;73.07;98099.78;4170438;28;21101;-81
2023/06/26 00:34:30;;;;;;;7.13;5.43;;;;;;;20.32;74.72;98096.47;4155271;28;21391;-81
2023/06/26 00:36:33;;;;;;;7.97;5.90;;;;;;;20.29;73.28;98103.09;4171914;28;20625;-81
2023/06/26 00:38:37;;;;;;;8.00;5.90;;;;;;;20.25;74.71;98097.31;4158923;28;20658;-81
2023/06/26 00:40:41;;;;;;;8.70;6.40;;;;;;;20.23;74.80;98098.44;4148312;28;21025;-81
2023/06/26 00:42:45;;;;;;;8.83;6.30;;;;;;;20.22;73.38;98110.03;4153772;28;21211;-81
2023/06/26 00:44:50;;;;;;;12.90;7.23;;;;;;;20.20;74.51;98098.78;4167357;28;20634;-81
2023/06/26 00:46:53;;;;;;;10.03;6.77;;;;;;;20.18;74.99;98095.47;4157406;28;21227;-81
2023/06/26 00:49:00;;;;;;;8.50;6.20;;;;;;;20.15;73.90;98096.63;4171192;28;20638;-81
2023/06/26 00:51:03;;;;;;;9.80;7.27;;;;;;;20.12;73.63;98093.47;4171602;28;20677;-81
2023/06/26 00:53:06;;;;;;;8.70;6.50;;;;;;;20.09;73.92;98091.16;4167518;28;20759;-81
2023/06/26 00:55:10;;;;;;;8.93;6.30;;;;;;;20.07;74.39;98098.41;4168911;28;20655;-81
2023/06/26 00:57:13;;;;;;;8.93;6.50;;;;;;;20.07;74.11;98093.13;4154660;28;20982;-81
2023/06/26 00:59:16;;;;;;;8.67;6.40;;;;;;;20.04;75.08;98098.75;4171583;28;20647;-81
2023/06/26 01:01:21;;;;;;;10.73;6.90;;;;;;;20.01;74.14;98099.06;4150485;28;20672;-81
2023/06/26 01:03:25;;;;;;;8.97;6.67;;;;;;;19.99;73.91;98095.75;4169288;28;20623;-81
2023/06/26 01:05:32;;;;;;;8.43;6.17;;;;;;;19.95;75.22;98094.41;4173199;28;20622;-81
2023/06/26 01:07:37;;;;;;;10.33;7.27;;;;;;;19.94;74.18;98098.06;4170712;28;20654;-81
2023/06/26 01:09:40;;;;;;;11.07;7.40;;;;;;;19.92;75.67;98082.34;4171146;28;20621;-80
2023/06/26 01:11:43;;;;;;;9.30;6.80;;;;;;;19.89;74.20;98087.13;4170319;28;21026;-81
2023/06/26 01:13:47;;;;;;;10.07;6.83;;;;;;;19.85;74.38;98088.41;4156794;28;20634;-81
2023/06/26 01:15:50;;;;;;;10.80;7.30;;;;;;;19.81;74.62;98080.97;4171969;28;20650;-81
2023/06/26 01:17:59;;;;;;;11.77;7.80;;;;;;;19.82;74.28;98087.94;4155213;28;21193;-81
2023/06/26 01:20:06;;;;;;;9.13;6.90;;;;;;;19.78;74.54;98086.56;4156666;28;20654;-81
2023/06/26 01:22:18;;;;;;;8.50;6.50;;;;;;;19.78;74.61;98081.28;4171637;28;20657;-81
2023/06/26 01:24:27;;;;;;;8.57;6.90;;;;;;;19.76;75.58;98084.09;4164159;28;20688;-81
2023/06/26 01:26:35;;;;;;;9.40;6.90;;;;;;;19.74;74.99;98082.59;4165027;28;20638;-81
2023/06/26 01:28:40;;;;;;;9.30;6.50;;;;;;;19.71;74.80;98075.81;4187661;28;20723;-81
2023/06/26 01:30:44;;;;;;;9.00;6.80;;;;;;;19.65;76.24;98073.81;4166490;28;21034;-81
2023/06/26 01:32:48;;;;;;;9.07;6.43;;;;;;;19.63;74.95;98070.47;4163025;28;20729;-81
2023/06/26 01:34:51;;;;;;;8.43;6.70;;;;;;;19.61;75.69;98069.81;4167174;28;20659;-81
2023/06/26 01:36:55;;;;;;;9.57;7.27;;;;;;;19.57;75.64;98068.47;4168053;28;20626;-81
2023/06/26 01:38:59;;;;;;;9.90;6.90;;;;;;;19.54;75.39;98063.50;4145164;28;21063;-81
2023/06/26 01:41:02;;;;;;;10.30;7.50;;;;;;;19.51;76.22;98058.53;4170317;28;20655;-81
2023/06/26 01:43:07;;;;;;;9.70;6.90;;;;;;;19.48;75.45;98060.66;4152132;28;20643;-81
2023/06/26 01:45:14;;;;;;;8.50;7.20;;;;;;;19.45;75.64;98056.53;4167905;28;20643;-81
2023/06/26 01:47:20;;;;;;;10.87;8.07;;;;;;;19.40;75.83;98056.19;4167706;28;20655;-81
2023/06/26 01:49:31;;;;;;;10.67;7.90;;;;;;;19.36;76.56;98061.13;4153751;28;21254;-81
2023/06/26 01:51:43;;;;;;;9.43;7.17;;;;;;;19.33;76.99;98058.78;4166566;28;20791;-81
2023/06/26 01:53:48;;;;;;;10.70;7.63;;;;;;;19.29;76.15;98062.72;4167019;28;20625;-81
2023/06/26 01:55:52;;;;;;;9.57;7.17;;;;;;;19.24;76.61;98059.75;4145425;28;20656;-80
2023/06/26 01:57:57;;;;;;;10.17;7.30;;;;;;;19.22;76.57;98059.91;4173595;28;20617;-80
2023/06/26 02:00:02;;;;;;;11.93;7.10;;;;;;;19.21;76.80;98058.25;4166805;28;20765;-80
2023/06/26 02:02:15;;;;;;;11.30;7.57;;;;;;;19.19;77.04;98054.94;4169478;28;20672;-81
2023/06/26 02:04:18;;;;;;;9.57;7.30;;;;;;;19.15;77.07;98056.22;4153040;28;20630;-81
2023/06/26 02:06:22;;;;;;;10.40;7.20;;;;;;;19.14;76.94;98061.66;4153407;28;20667;-81
2023/06/26 02:08:27;;;;;;;9.83;7.50;;;;;;;19.12;77.51;98053.06;4172290;28;20643;-81
2023/06/26 02:10:32;;;;;;;10.27;7.43;;;;;;;19.09;76.32;98061.31;4168621;28;20664;-80
2023/06/26 02:12:36;;;;;;;9.63;6.97;;;;;;;19.06;77.08;98059.84;4150520;28;20628;-81
2023/06/26 02:14:39;;;;;;;10.70;7.83;;;;;;;19.04;78.10;98060.97;4176839;28;20620;-80
2023/06/26 02:16:44;;;;;;;11.63;7.60;;;;;;;19.01;77.32;98055.97;4156720;28;21239;-81
2023/06/26 02:18:47;;;;;;;12.37;7.13;;;;;;;19.01;77.31;98053.31;4177045;28;20702;-81
2023/06/26 02:20:50;;;;;;;8.80;7.00;;;;;;;18.99;76.89;98058.78;4177789;28;20629;-81
2023/06/26 02:22:53;;;;;;;10.87;7.40;;;;;;;18.96;77.47;98056.44;4177183;28;21031;-81
2023/06/26 02:24:56;;;;;;;9.30;6.77;;;;;;;18.94;77.85;98053.13;4168727;28;20668;-81
2023/06/26 02:27:01;;;;;;;8.77;6.60;;;;;;;18.92;77.54;98056.91;4173224;28;20630;-80
2023/06/26 02:29:04;;;;;;;10.40;7.43;;;;;;;18.90;77.73;98056.25;4176836;28;20665;-80
2023/06/26 02:31:08;;;;;;;11.17;7.43;;;;;;;18.87;77.66;98056.56;4176899;28;20632;-81
2023/06/26 02:33:12;;;;;;;11.00;7.70;;;;;;;18.85;77.57;98062.97;4176536;28;20658;-80
2023/06/26 02:35:16;;;;;;;9.57;6.63;;;;;;;18.82;78.08;98052.72;4173095;28;20629;-81
2023/06/26 02:37:19;;;;;;;9.77;6.90;;;;;;;18.81;78.13;98064.25;4155418;28;20640;-81
2023/06/26 02:39:23;;;;;;;8.70;6.53;;;;;;;18.79;78.53;98066.25;4171175;28;20638;-80
2023/06/26 02:41:26;;;;;;;10.10;7.30;;;;;;;18.79;77.67;98067.06;4154228;28;20628;-80
2023/06/26 02:43:29;;;;;;;9.27;6.87;;;;;;;18.78;77.29;98064.56;4168160;28;20719;-80
2023/06/26 02:45:32;;;;;;;11.70;7.50;;;;;;;18.75;78.23;98062.25;4167214;28;20671;-80
2023/06/26 02:47:39;;;;;;;10.10;7.20;;;;;;;18.70;78.11;98064.53;4155637;28;20673;-80
2023/06/26 02:49:45;;;;;;;8.90;6.80;;;;;;;18.67;78.34;98060.41;4172984;28;21107;-80
2023/06/26 02:51:48;;;;;;;9.53;6.90;;;;;;;18.64;78.83;98066.00;4171492;28;20664;-80
2023/06/26 02:54:00;;;;;;;9.73;7.20;;;;;;;18.60;78.73;98055.91;4173033;28;20628;-81
2023/06/26 02:56:04;;;;;;;9.40;7.27;;;;;;;18.56;78.54;98052.72;4180288;28;21134;-81
2023/06/26 02:58:07;;;;;;;10.33;7.43;;;;;;;18.55;79.00;98059.00;4171287;28;20731;-80
2023/06/26 03:00:14;;;;;;;13.40;8.80;;;;;;;18.54;78.73;98059.16;4169065;28;21066;-81
2023/06/26 03:02:23;;;;;;;10.90;7.77;;;;;;;18.55;78.38;98059.00;4155714;28;22711;-80
2023/06/26 03:04:26;;;;;;;11.47;7.53;;;;;;;18.55;78.28;98059.00;4169220;28;20640;-80
2023/06/26 03:06:31;;;;;;;11.00;7.60;;;;;;;18.54;79.00;98062.63;4185494;28;20656;-80
2023/06/26 03:08:37;;;;;;;12.60;8.20;;;;;;;18.53;78.54;98062.75;4158544;28;20631;-80
2023/06/26 03:10:40;;;;;;;9.17;7.10;;;;;;;18.52;78.68;98069.03;4177627;28;20637;-80
2023/06/26 03:12:44;;;;;;;12.63;8.10;;;;;;;18.49;79.20;98062.25;4162302;28;20694;-80
2023/06/26 03:14:47;;;;;;;9.67;7.50;;;;;;;18.47;79.14;98063.38;4163850;28;20703;-80
2023/06/26 03:16:52;;;;;;;11.33;8.20;;;;;;;18.43;79.52;98064.66;4165608;28;20703;-81
2023/06/26 03:18:56;;;;;;;10.70;8.33;;;;;;;18.40;79.47;98057.03;4175334;28;20694;-81
2023/06/26 03:20:59;;;;;;;13.83;7.70;;;;;;;18.39;78.86;98060.69;4144454;28;20652;-80
2023/06/26 03:23:04;;;;;;;9.53;7.33;;;;;;;18.37;79.41;98067.91;4158213;28;20637;-80
2023/06/26 03:25:07;;;;;;;11.03;7.60;;;;;;;18.34;79.60;98062.13;4160982;28;21274;-80
2023/06/26 03:27:10;;;;;;;9.47;7.57;;;;;;;18.31;80.02;98062.41;4155897;28;21097;-80
2023/06/26 03:29:14;;;;;;;10.20;7.17;;;;;;;18.29;80.26;98064.41;4169678;28;22400;-80
2023/06/26 03:31:17;;;;;;;12.03;7.97;;;;;;;18.30;80.10;98061.59;4169314;28;20711;-80
2023/06/26 03:33:21;;;;;;;10.63;7.87;;;;;;;18.30;79.90;98061.59;4161769;28;21217;-80
2023/06/26 03:35:24;;;;;;;9.90;7.40;;;;;;;18.30;80.24;98066.88;4176729;28;20671;-80
2023/06/26 03:37:28;;;;;;;11.27;7.97;;;;;;;18.30;80.02;98058.16;4186859;28;20710;-80
2023/06/26 03:39:32;;;;;;;11.67;8.63;;;;;;;18.28;79.67;98062.72;4172889;28;20638;-80
2023/06/26 03:41:35;;;;;;;10.00;8.00;;;;;;;18.27;79.99;98066.38;4161149;28;20634;-80
2023/06/26 03:43:40;;;;;;;12.80;7.80;;;;;;;18.24;80.54;98067.50;4157897;28;22633;-80
2023/06/26 03:45:54;;;;;;;9.93;7.20;;;;;;;18.24;80.67;98064.03;4172215;28;21011;-81
2023/06/26 03:47:57;;;;;;;9.60;7.00;;;;;;;18.25;79.78;98071.81;4157026;28;20640;-81
2023/06/26 03:50:00;;;;;;;10.83;7.60;;;;;;;18.25;80.24;98070.94;4170466;28;20666;-80
2023/06/26 03:52:04;;;;;;;12.90;7.90;;;;;;;18.24;80.19;98064.03;4171236;28;20656;-81
2023/06/26 03:54:07;;;;;;;10.80;7.70;;;;;;;18.24;80.10;98069.31;4148349;28;20641;-80
2023/06/26 03:56:12;;;;;;;11.10;8.23;;;;;;;18.25;80.44;98079.72;4152769;28;20728;-80
2023/06/26 03:58:15;;;;;;;10.70;7.07;;;;;;;18.27;80.60;98069.00;4171046;28;20639;-80
2023/06/26 04:00:19;;;;;;;9.27;6.73;;;;;;;18.29;80.33;98074.97;4150727;28;21028;-81
2023/06/26 04:02:23;;;;;;;10.90;7.97;;;;;;;18.33;80.28;98081.56;4173957;28;20636;-80
2023/06/26 04:04:26;;;;;;;11.37;7.70;;;;;;;18.36;81.01;98083.91;4178896;28;20692;-80
2023/06/26 04:06:31;;;;;;;11.13;7.77;;;;;;;18.38;80.34;98085.44;4156626;28;21067;-80
2023/06/26 04:08:35;;;;;;;9.57;7.20;;;;;;;18.41;79.88;98086.94;4170500;28;20676;-80
2023/06/26 04:10:38;;;;;;;11.40;8.60;;;;;;;18.41;79.42;98088.59;4148219;28;20640;-81
2023/06/26 04:12:43;;;;;;;11.10;7.90;;;;;;;18.42;79.52;98087.63;4151012;28;20703;-80
2023/06/26 04:14:46;;;;;;;11.17;7.83;;;;;;;18.47;79.13;98089.78;4148849;28;21390;-80
2023/06/26 04:16:49;;;;;;;11.20;8.33;;;;;;;18.48;78.85;98094.94;4165850;28;20653;-80
2023/06/26 04:18:53;;;;;;;11.80;8.27;;;;;;;18.51;79.14;98096.44;4171776;28;20651;-81
2023/06/26 04:21:07;;;;;;;11.57;8.27;;;;;;;18.54;79.39;98098.78;4146882;28;20646;-80
2023/06/26 04:23:10;;;;;;;10.90;8.60;;;;;;;18.55;79.90;98097.78;4171818;28;20674;-81
2023/06/26 04:25:14;;;;;;;10.17;7.60;;;;;;;18.57;79.74;98095.84;4171158;28;20633;-81
2023/06/26 04:27:17;;;;;;;13.57;9.70;;;;;;;18.59;80.06;98109.72;4151933;28;20763;-81
2023/06/26 04:29:25;;;;;;;10.97;7.77;;;;;;;18.64;79.68;98107.44;4165263;28;20643;-81
2023/06/26 04:31:28;;;;;;;11.33;8.10;;;;;;;18.68;79.85;98108.78;4161938;28;20640;-81
2023/06/26 04:33:31;;;;;;;11.30;8.27;;;;;;;18.71;79.29;98109.31;4158269;28;21221;-80
2023/06/26 04:35:36;;;;;;;11.57;8.13;;;;;;;18.75;78.34;98101.88;4157051;28;20640;-80
2023/06/26 04:37:40;;;;;;;10.47;7.83;;;;;;;18.77;78.54;98105.22;4169966;28;20649;-80
2023/06/26 04:39:43;;;;;;;13.30;8.40;;;;;;;18.81;79.00;98107.41;4143638;28;20626;-82
2023/06/26 04:41:49;;;;;;;10.37;8.53;;;;;;;18.85;79.01;98105.28;4148557;28;20738;-80
2023/06/26 04:43:53;;;;;;;12.77;8.67;;;;;;;18.90;79.64;98112.59;4161291;28;20640;-84
2023/06/26 04:45:57;;;;;;;11.33;8.70;;;;;;;18.95;79.15;98107.66;4166005;28;20731;-84
2023/06/26 04:48:01;;;;;;;11.50;8.60;;;;;;;18.99;78.38;98102.91;4143627;28;20730;-84
2023/06/26 04:50:05;;;;;;;13.73;9.33;;;;;;;19.01;77.92;98104.41;4167931;28;20633;-84
2023/06/26 04:52:08;;;;;;;10.47;8.53;;;;;;;19.06;78.24;98103.94;4171683;28;20632;-85
2023/06/26 04:54:12;;;;;;;12.43;8.70;;;;;;;19.09;78.32;98104.47;4167513;28;20640;-84
2023/06/26 04:56:15;;;;;;;12.43;8.20;;;;;;;19.15;78.44;98097.72;4167490;28;20632;-85
2023/06/26 04:58:21;;;;;;;10.90;8.50;;;;;;;19.19;79.14;98099.91;4166251;28;20663;-84
2023/06/26 05:00:24;;;;;;;12.43;8.77;;;;;;;19.26;78.58;98105.38;4167196;28;20653;-85
2023/06/26 05:02:29;;;;;;;11.67;8.70;;;;;;;19.31;78.56;98105.75;4168767;28;20741;-84
2023/06/26 05:04:32;;;;;;;9.90;8.07;;;;;;;19.37;76.75;98103.28;4157601;28;20732;-84
2023/06/26 05:06:35;;;;;;;12.30;8.80;;;;;;;19.43;78.49;98105.31;4173098;28;21256;-84
2023/06/26 05:08:39;;;;;;;11.10;8.10;;;;;;;19.50;78.18;98101.03;4157523;28;21214;-85
2023/06/26 05:10:42;;;;;;;9.60;8.20;;;;;;;19.53;76.64;98096.25;4166610;28;20629;-85
2023/06/26 05:12:46;;;;;;;11.00;8.33;;;;;;;19.56;75.58;98098.59;4154844;28;20630;-84
2023/06/26 05:14:49;;;;;;;11.40;8.40;;;;;;;19.60;76.39;98091.97;4173938;28;20676;-84
2023/06/26 05:16:52;;;;;;;10.60;8.50;;;;;;;19.67;76.45;98100.94;4172365;28;20625;-83
2023/06/26 05:18:57;;;;;;;10.43;8.00;;;;;;;19.75;77.25;98108.91;4179287;28;21227;-79
2023/06/26 05:21:01;;;;;;;12.60;9.37;;;;;;;19.84;76.23;98102.63;4171457;28;20641;-79
2023/06/26 05:23:04;;;;;;;10.67;8.97;;;;;;;19.92;76.67;98100.88;4168756;28;20637;-79
2023/06/26 05:25:10;;;;;;;10.67;8.30;;;;;;;20.02;76.25;98106.03;4152970;28;21228;-79
2023/06/26 05:27:21;;;;;;;10.73;8.07;;;;;;;20.15;75.86;98111.69;4164482;28;21184;-80
2023/06/26 05:29:25;;;;;;;11.47;8.47;;;;;;;20.27;75.43;98105.09;4166473;28;20773;-79
2023/06/26 05:31:28;;;;;;;10.87;8.50;;;;;;;20.39;76.03;98112.56;4165543;28;20634;-82
2023/06/26 05:33:32;;;;;;;11.17;8.90;;;;;;;20.53;74.92;98118.00;4154634;28;20649;-82
2023/06/26 05:35:37;;;;;;;10.93;7.63;;;;;;;20.66;75.82;98107.75;4164441;28;21439;-82
2023/06/26 05:37:41;;;;;;;11.30;8.27;;;;;;;20.83;74.28;98114.72;4163977;28;20661;-82
2023/06/26 05:39:45;;;;;;;10.20;7.93;;;;;;;21.07;74.79;98114.69;4184838;28;20636;-85
2023/06/26 05:41:49;;;;;;;9.87;7.83;;;;;;;21.38;73.83;98119.09;4172196;28;20630;-83
2023/06/26 05:43:54;;;;;;;12.60;8.10;;;;;;;21.72;73.39;98120.47;4146612;28;20689;-82
2023/06/26 05:45:57;;;;;;;11.97;8.33;;;;;;;22.07;72.02;98131.44;4166390;28;20725;-82
2023/06/26 05:48:00;;;;;;;13.67;8.87;;;;;;;22.39;71.28;98126.75;4152832;28;20711;-81
2023/06/26 05:50:05;;;;;;;10.10;8.50;;;;;;;22.70;70.86;98127.50;4167780;28;20737;-81
2023/06/26 05:52:11;;;;;;;11.37;8.93;;;;;;;23.01;70.46;98130.94;4167746;28;20638;-82
2023/06/26 05:54:15;;;;;;;12.03;8.40;;;;;;;23.32;69.99;98133.28;4169569;28;21054;-82
2023/06/26 05:56:19;;;;;;;12.27;9.53;;;;;;;23.62;69.51;98139.44;4174233;28;20642;-82
2023/06/26 05:58:22;;;;;;;12.00;9.23;;;;;;;23.83;68.40;98135.88;4167427;28;20675;-82
2023/06/26 06:00:27;;;;;;;10.30;8.00;;;;;;;24.03;67.63;98134.28;4158299;28;20652;-82
2023/06/26 06:02:30;;;;;;;12.17;9.00;;;;;;;24.29;67.10;98143.41;4161282;28;21329;-82
2023/06/26 06:04:34;;;;;;;9.93;8.00;;;;;;;24.56;66.43;98144.56;4168130;28;20622;-82
2023/06/26 06:06:38;;;;;;;11.37;8.37;;;;;;;24.80;65.89;98135.13;4163585;28;20695;-82
2023/06/26 06:08:42;;;;;;;10.20;7.83;;;;;;;25.04;65.74;98140.09;4156839;28;20725;-82
2023/06/26 06:10:49;;;;;;;13.50;8.30;;;;;;;25.30;63.98;98137.63;4170688;28;20636;-82
2023/06/26 06:12:56;;;;;;;12.43;8.40;;;;;;;25.56;63.64;98135.13;4153901;28;21087;-82
2023/06/26 06:14:59;;;;;;;10.30;7.70;;;;;;;25.81;63.23;98139.81;4158296;28;20622;-82
2023/06/26 06:17:02;;;;;;;10.37;7.77;;;;;;;26.05;62.69;98140.13;4168762;28;20630;-82
2023/06/26 06:19:07;;;;;;;9.10;7.80;;;;;;;26.28;62.97;98141.50;4168645;28;20660;-82
2023/06/26 06:21:10;;;;;;;10.70;7.80;;;;;;;26.51;61.94;98141.97;4171001;28;20671;-82
2023/06/26 06:23:13;;;;;;;11.07;8.60;;;;;;;26.72;60.55;98139.97;4174287;28;20620;-82
2023/06/26 06:25:18;;;;;;;7.87;6.90;;;;;;;26.96;60.50;98142.09;4174579;28;20639;-82
2023/06/26 06:27:21;;;;;;;9.80;7.83;;;;;;;27.18;60.21;98141.69;4170131;28;20656;-82
2023/06/26 06:29:24;;;;;;;9.57;7.60;;;;;;;27.45;59.72;98143.28;4168588;28;20997;-82
2023/06/26 06:31:28;;;;;;;10.03;7.93;;;;;;;27.60;59.59;98135.84;4175590;28;20673;-82
2023/06/26 06:33:31;;;;;;;10.57;8.80;;;;;;;27.81;59.51;98136.41;4159654;28;21031;-82
2023/06/26 06:35:34;;;;;;;10.30;7.47;;;;;;;28.10;59.51;98139.47;4170793;28;21544;-82
2023/06/26 06:37:38;;;;;;;8.47;7.00;;;;;;;28.38;59.78;98136.44;4168959;28;20666;-82
2023/06/26 06:39:41;;;;;;;9.30;7.47;;;;;;;28.71;59.39;98149.47;4173110;28;20628;-82
2023/06/26 06:41:46;;;;;;;10.40;7.73;;;;;;;28.99;59.61;98145.34;4169795;28;20713;-83
2023/06/26 06:43:49;;;;;;;9.07;7.67;;;;;;;29.14;58.91;98143.16;4160139;28;20738;-82
2023/06/26 06:45:52;;;;;;;11.80;7.17;;;;;;;29.34;58.90;98134.97;4150412;28;20637;-83
2023/06/26 06:47:55;;;;;;;8.47;6.43;;;;;;;29.52;57.25;98133.13;4166604;28;20609;-83
2023/06/26 06:49:59;;;;;;;7.67;6.50;;;;;;;29.77;56.28;98132.03;4167495;28;20992;-83
2023/06/26 06:52:02;;;;;;;8.37;6.67;;;;;;;29.99;55.32;98134.09;4172290;28;20633;-83
2023/06/26 06:54:05;;;;;;;8.20;6.70;;;;;;;30.09;55.33;98130.88;4164688;28;20647;-83
2023/06/26 06:56:08;;;;;;;8.17;6.80;;;;;;;30.15;55.71;98136.16;4173831;28;20704;-83
2023/06/26 06:58:13;;;;;;;9.57;7.27;;;;;;;30.23;55.69;98137.72;4175657;28;20641;-83
2023/06/26 07:00:17;;;;;;;8.10;7.17;;;;;;;30.41;56.65;98135.84;4175196;28;20754;-83
2023/06/26 07:02:20;;;;;;;9.30;7.37;;;;;;;30.62;55.83;98138.06;4172547;28;20624;-83
2023/06/26 07:04:23;;;;;;;9.73;7.83;;;;;;;30.74;54.61;98134.34;4168997;28;20626;-83
2023/06/26 07:06:26;;;;;;;9.27;7.47;;;;;;;30.88;55.18;98135.81;4173212;28;20663;-83
2023/06/26 07:08:30;;;;;;;8.43;6.77;;;;;;;31.01;54.38;98136.44;4172849;28;20629;-83
2023/06/26 07:10:33;;;;;;;9.27;7.23;;;;;;;31.11;53.57;98144.78;4160560;28;21067;-81
2023/06/26 07:12:37;;;;;;;7.73;6.43;;;;;;;31.17;52.69;98143.88;4169694;28;21192;-81
2023/06/26 07:14:41;;;;;;;8.37;6.90;;;;;;;31.21;52.76;98128.84;4168976;28;20637;-80
2023/06/26 07:16:44;;;;;;;8.63;7.30;;;;;;;31.24;52.69;98128.38;4149435;28;21735;-83
2023/06/26 07:18:49;;;;;;;6.97;6.27;;;;;;;31.31;52.86;98137.19;4163850;28;21039;-83
2023/06/26 07:20:52;;;;;;;8.40;6.50;;;;;;;31.48;53.32;98130.91;4172780;28;22622;-83
2023/06/26 07:22:55;;;;;;;8.23;6.90;;;;;;;31.66;52.46;98133.47;4173068;28;20727;-83
2023/06/26 07:24:58;;;;;;;9.83;7.17;;;;;;;31.79;53.57;98135.13;4164739;28;20645;-83
2023/06/26 07:27:01;;;;;;;7.80;6.67;;;;;;;31.86;51.88;98135.78;4170160;28;20612;-83
2023/06/26 07:29:04;;;;;;;7.63;6.30;;;;;;;31.89;53.13;98134.28;4170538;28;20626;-80
2023/06/26 07:31:09;;;;;;;9.20;7.37;;;;;;;32.04;52.73;98136.50;4178553;28;20644;-81
2023/06/26 07:33:12;;;;;;;7.23;6.13;;;;;;;32.18;50.85;98136.00;4171108;28;20725;-81
2023/06/26 07:35:16;;;;;;;8.60;6.37;;;;;;;32.27;50.82;98133.75;4177573;28;20632;-81
2023/06/26 07:37:19;;;;;;;8.23;6.87;;;;;;;32.40;51.29;98135.13;4168444;28;20670;-81
2023/06/26 07:39:23;;;;;;;7.20;6.40;;;;;;;32.53;52.68;98140.25;4171639;28;20764;-80
2023/06/26 07:41:26;;;;;;;8.07;6.60;;;;;;;32.71;52.38;98144.66;4171276;28;20653;-80
2023/06/26 07:43:29;;;;;;;7.20;6.30;;;;;;;32.78;49.81;98140.75;4167935;28;20703;-80
2023/06/26 07:45:32;;;;;;;10.07;6.70;;;;;;;32.79;50.18;98136.13;4185959;28;20632;-80
2023/06/26 07:47:37;;;;;;;8.40;6.73;;;;;;;32.80;49.90;98135.09;4175825;28;20635;-80
2023/06/26 07:49:40;;;;;;;9.03;7.60;;;;;;;32.77;50.44;98132.88;4169949;28;20637;-80
2023/06/26 07:51:44;;;;;;;6.60;5.87;;;;;;;32.80;50.15;98137.78;4183323;28;20637;-80
2023/06/26 07:53:47;;;;;;;8.23;6.60;;;;;;;32.75;48.75;98125.00;4170172;28;20687;-80
2023/06/26 07:55:50;;;;;;;7.83;6.00;;;;;;;32.84;49.02;98135.16;4168165;28;22119;-80
2023/06/26 07:57:55;;;;;;;7.20;6.50;;;;;;;32.85;49.42;98134.13;4169852;28;20661;-80
2023/06/26 07:59:58;;;;;;;6.67;5.97;;;;;;;32.97;49.33;98134.91;4167189;28;20734;-80
2023/06/26 08:02:02;;;;;;;8.63;6.27;;;;;;;32.99;48.86;98130.06;4169192;28;21080;-80
2023/06/26 08:04:06;;;;;;;8.00;6.30;;;;;;;33.09;49.77;98132.09;4170530;28;20751;-80
2023/06/26 08:06:10;;;;;;;7.83;6.30;;;;;;;33.12;48.05;98131.63;4169445;28;20884;-80
2023/06/26 08:08:14;;;;;;;7.33;6.50;;;;;;;33.08;48.38;98125.06;4171264;28;20649;-80
2023/06/26 08:10:18;;;;;;;10.27;6.87;;;;;;;33.11;48.11;98120.00;4187252;28;20631;-81
2023/06/26 08:12:21;;;;;;;9.17;6.67;;;;;;;33.21;48.20;98128.25;4169658;28;20738;-81
2023/06/26 08:14:24;;;;;;;7.60;6.23;;;;;;;33.33;50.02;98128.19;4146679;28;20676;-81
2023/06/26 08:16:28;;;;;;;6.60;5.67;;;;;;;33.43;49.92;98124.59;4157339;28;20640;-81
2023/06/26 08:18:31;;;;;;;7.00;6.17;;;;;;;33.55;48.60;98119.09;4170530;28;20666;-81
2023/06/26 08:20:36;;;;;;;7.73;6.97;;;;;;;33.60;48.16;98121.88;4166859;28;20683;-81
2023/06/26 08:22:41;;;;;;;6.80;6.10;;;;;;;33.64;48.82;98123.84;4169585;28;20907;-81
2023/06/26 08:24:44;;;;;;;6.80;5.93;;;;;;;33.73;49.81;98125.03;4170457;28;21196;-81
2023/06/26 08:26:48;;;;;;;6.73;5.90;;;;;;;33.83;49.96;98119.78;4167241;28;20969;-81
2023/06/26 08:28:51;;;;;;;8.00;6.30;;;;;;;33.93;48.32;98118.03;4161938;28;20649;-80
2023/06/26 08:30:55;;;;;;;7.97;6.33;;;;;;;33.94;47.65;98110.75;4167831;28;20741;-80
2023/06/26 08:32:58;;;;;;;6.80;6.03;;;;;;;33.93;47.82;98109.91;4155830;28;21236;-80
2023/06/26 08:35:01;;;;;;;8.10;6.53;;;;;;;33.96;48.06;98106.69;4171045;28;21215;-80
2023/06/26 08:37:09;;;;;;;6.70;5.97;;;;;;;33.89;48.61;98103.34;4171078;28;20739;-81
2023/06/26 08:39:12;;;;;;;7.00;5.80;;;;;;;33.93;48.23;98109.91;4171800;28;20638;-80
2023/06/26 08:41:15;;;;;;;8.33;6.93;;;;;;;33.98;48.54;98103.75;4162118;28;20645;-80
2023/06/26 08:43:19;;;;;;;7.37;6.50;;;;;;;34.03;48.55;98107.34;4165467;28;20629;-80
2023/06/26 08:45:22;;;;;;;6.43;5.83;;;;;;;34.15;48.77;98104.53;4169357;28;20663;-80
2023/06/26 08:47:26;;;;;;;7.10;5.60;;;;;;;34.13;48.09;98107.47;4152493;28;20759;-81
2023/06/26 08:49:37;;;;;;;7.00;5.90;;;;;;;34.15;49.27;98113.47;4167496;28;20627;-80
2023/06/26 08:51:44;;;;;;;8.10;6.20;;;;;;;34.14;48.52;98117.22;4169044;28;20631;-80
2023/06/26 08:53:53;;;;;;;7.17;5.93;;;;;;;34.09;47.76;98109.03;4164114;28;20612;-80
2023/06/26 08:55:58;;;;;;;6.73;6.10;;;;;;;34.03;47.78;98103.81;4165409;28;20639;-80
2023/06/26 08:58:02;;;;;;;6.63;5.97;;;;;;;34.11;48.89;98106.09;4165410;28;20784;-80
2023/06/26 09:00:08;;;;;;;7.00;6.23;;;;;;;34.09;47.70;98106.34;4169815;28;20664;-80
2023/06/26 09:02:12;;;;;;;8.97;6.00;;;;;;;33.90;47.71;98102.28;4167341;28;20643;-80
2023/06/26 09:04:15;;;;;;;6.30;5.67;;;;;;;33.90;47.62;98099.56;4169472;28;21169;-80
2023/06/26 09:06:19;;;;;;;7.30;6.40;;;;;;;33.85;47.99;98099.50;4166691;28;20703;-80
2023/06/26 09:08:22;;;;;;;6.80;6.10;;;;;;;33.83;48.45;98104.34;4161879;28;20636;-80
2023/06/26 09:10:26;;;;;;;6.37;5.70;;;;;;;33.80;48.61;98109.44;4161121;28;20751;-80
2023/06/26 09:12:30;;;;;;;7.60;5.60;;;;;;;33.78;48.56;98102.63;4164075;28;20731;-80
2023/06/26 09:14:33;;;;;;;6.80;5.87;;;;;;;33.89;49.86;98105.25;4168130;28;20626;-80
2023/06/26 09:16:41;;;;;;;6.83;5.73;;;;;;;34.03;50.69;98115.47;4169262;28;20617;-81
2023/06/26 09:18:46;;;;;;;7.70;6.03;;;;;;;34.12;49.05;98108.53;4167062;28;20643;-80
2023/06/26 09:20:50;;;;;;;6.17;5.57;;;;;;;34.11;48.58;98114.22;4156627;28;20742;-80
2023/06/26 09:22:55;;;;;;;6.10;5.43;;;;;;;34.14;48.73;98105.59;4168117;28;20657;-80
2023/06/26 09:24:58;;;;;;;7.20;6.47;;;;;;;34.20;49.08;98105.38;4173517;28;20708;-80
2023/06/26 09:27:03;;;;;;;7.37;5.87;;;;;;;34.24;48.94;98101.09;4175171;28;20627;-80
2023/06/26 09:29:07;;;;;;;6.53;5.77;;;;;;;34.25;49.61;98102.75;4186816;28;20616;-80
2023/06/26 09:31:10;;;;;;;5.90;5.30;;;;;;;34.26;49.13;98098.94;4168211;28;20626;-80
2023/06/26 09:33:15;;;;;;;8.33;6.40;;;;;;;34.31;48.59;98104.41;4170546;28;20644;-80
2023/06/26 09:35:18;;;;;;;6.27;5.67;;;;;;;34.03;48.34;98096.50;4170948;28;20651;-81
2023/06/26 09:37:22;;;;;;;7.07;6.40;;;;;;;33.93;49.80;98095.56;4171871;28;20911;-81
2023/06/26 09:39:25;;;;;;;6.33;5.73;;;;;;;34.05;49.68;98101.69;4168953;28;20687;-80
2023/06/26 09:41:28;;;;;;;6.73;6.03;;;;;;;34.12;48.91;98086.88;4169034;28;20645;-80